Beecher, IL (60401)

2:33 AM CST on December 18, 2014 (GMT -0600)
Havenwood | Change Station
CLOSE
Current Station
Personal Weather Station
Location: Cedar Lake, IN
Elevation: 768 ft
Nearby Weather Stations

Elev 768 ft 41.39 °N, 87.44 °W | Updated 2 seconds ago

Overcast
Overcast
25.4 °F
Feels Like 25 °F
N
0.0
Wind Variable Wind from West
Gusts 1.6 mph

Today
High -- | Low -- °F
--% Chance of Precip.
Yesterday
High -- | Low -- °F
Precip. -- in
7:11 AM 4:22 PM
Waning Crescent, 16% visible
Pressure 30.29 in
Visibility 10.0 miles
Clouds Overcast 2200 ft
Windchill 25 °F
Dew Point 7 °F
Humidity 46%
Rainfall 0.00 in
Snow Depth Not available.
UV 0 out of 12
Pollen .10 out of 12
Air Quality Not available.
Flu Activity Not available.
METAR KIGQ 180815Z AUTO 29003KT 10SM OVC022 M04/M08 A3029 RMK AO2 T10391080

More Conditions Fewer Conditions

Pressure 30.29 in
Visibility 10.0 miles
Clouds Overcast 2200 ft
Windchill 25 °F
Dew Point 7 °F
Humidity 46%
Rainfall 0.00 in
Snow Depth Not available.
UV 0 out of 12
Pollen .10 out of 12
Air Quality Not available.
Flu Activity Not available.
METAR KIGQ 180815Z AUTO 29003KT 10SM OVC022 M04/M08 A3029 RMK AO2 T10391080

More Conditions Fewer Conditions

10-Day Weather Forecast

Almanac

Astronomy

Dec. 18, 2014 Rise Set
Actual Time
Civil Twilight
Nautical Twilight
Astronomical Twilight
Moon
Length of Visible Light
Length of Day
Tomorrow will be .
, % of the Moon is Illuminated

Today's Extremes

State Highs State Lows

Community

WunderPhotos

Upload Photos

1,778,907 photos uploaded!

WunderBlogs® & News

Nearby

Air Quality

  Air Quality AQ Index Pollutant
Not available.

Snow Depth

Station Depth Elevation

Earthquake Activity

City Distance Mag. Time & Date
Minimum magnitude displayed is 2.5.

Coastal Water Temperatures

Place Temperature

Nearby Weather Stations